createdAt,value
2022-12-04T00:01:19.892Z,99563.25
2022-12-04T00:03:46.506Z,99566.81
2022-12-04T00:06:18.864Z,99559.75
2022-12-04T00:08:46.739Z,99556.22
2022-12-04T00:11:17.461Z,99567.69
2022-12-04T00:13:44.523Z,99569.44
2022-12-04T00:16:12.913Z,99559.75
2022-12-04T00:18:39.870Z,99556.25
2022-12-04T00:21:08.204Z,99560.63
2022-12-04T00:23:36.422Z,99558.00
2022-12-04T00:26:07.841Z,99568.56
2022-12-04T00:28:35.308Z,99557.97
2022-12-04T00:31:06.006Z,99565.00
2022-12-04T00:33:32.492Z,99554.44
2022-12-04T00:36:00.337Z,99560.63
2022-12-04T00:38:27.547Z,99557.09
2022-12-04T00:40:54.821Z,99555.34
2022-12-04T00:43:23.172Z,99557.09
2022-12-04T00:45:50.133Z,99550.94
2022-12-04T00:48:16.652Z,99550.91
2022-12-04T00:50:43.145Z,99546.53
2022-12-04T00:53:09.693Z,99549.16
2022-12-04T00:55:43.599Z,99548.28
2022-12-04T00:58:11.481Z,99549.16
2022-12-04T01:00:42.037Z,99552.69
2022-12-04T01:03:09.373Z,99550.03
2022-12-04T01:05:45.094Z,99548.28
2022-12-04T01:08:12.879Z,99546.53
2022-12-04T01:10:41.948Z,99554.44
2022-12-04T01:13:09.018Z,99547.41
2022-12-04T01:15:38.879Z,99535.06
2022-12-04T01:18:05.483Z,99540.34
2022-12-04T01:20:31.918Z,99537.69
2022-12-04T01:22:58.377Z,99535.94
2022-12-04T01:25:24.855Z,99540.34
2022-12-04T01:27:51.320Z,99533.28
2022-12-04T01:30:17.787Z,99533.25
2022-12-04T01:32:44.246Z,99528.00
2022-12-04T01:35:10.718Z,99539.44
2022-12-04T01:37:37.303Z,99539.47
2022-12-04T01:40:05.181Z,99529.78
2022-12-04T01:42:31.653Z,99528.03
2022-12-04T01:45:35.637Z,99520.09
2022-12-04T01:48:15.009Z,99518.31
2022-12-04T01:50:43.393Z,99513.06
2022-12-04T01:53:10.954Z,99512.19
2022-12-04T01:55:38.102Z,99507.81
2022-12-04T01:58:07.165Z,99505.16
2022-12-04T02:00:33.743Z,99493.72
2022-12-04T02:03:01.509Z,99499.88
2022-12-04T02:05:28.106Z,99498.13
2022-12-04T02:07:59.503Z,99498.94
2022-12-04T02:10:52.837Z,99489.28
2022-12-04T02:13:31.259Z,99482.28
2022-12-04T02:16:10.010Z,99476.97
2022-12-04T02:18:46.491Z,99477.00
2022-12-04T02:21:21.564Z,99478.72
2022-12-04T02:24:09.194Z,99495.44
2022-12-04T02:27:02.264Z,99490.19
2022-12-04T02:30:01.067Z,99478.72
2022-12-04T02:32:45.529Z,99480.50
2022-12-04T02:35:16.624Z,99482.28
2022-12-04T02:37:50.496Z,99477.91
2022-12-04T02:40:25.433Z,99476.09
2022-12-04T02:42:58.200Z,99483.16
2022-12-04T02:45:31.238Z,99479.63
2022-12-04T02:48:02.182Z,99484.03
2022-12-04T02:50:30.751Z,99470.84
2022-12-04T02:53:03.910Z,99477.88
2022-12-04T02:55:46.385Z,99478.72
2022-12-04T02:58:23.068Z,99484.00
2022-12-04T03:00:51.894Z,99479.63
2022-12-04T03:03:23.228Z,99481.38
2022-12-04T03:06:11.993Z,99476.97
2022-12-04T03:09:01.753Z,99476.13
2022-12-04T03:11:33.642Z,99472.56
2022-12-04T03:14:15.256Z,99465.56
2022-12-04T03:16:43.023Z,99466.44
2022-12-04T03:19:11.837Z,99467.31
2022-12-04T03:21:44.724Z,99459.38
2022-12-04T03:24:19.946Z,99456.75
2022-12-04T03:27:04.921Z,99459.38
2022-12-04T03:29:40.701Z,99460.19
2022-12-04T03:32:18.565Z,99465.41
2022-12-04T03:34:56.320Z,99466.22
2022-12-04T03:37:38.766Z,99465.34
2022-12-04T03:40:38.061Z,99468.88
2022-12-04T03:43:13.524Z,99475.03
2022-12-04T03:45:45.555Z,99475.94
2022-12-04T03:48:34.953Z,99462.75
2022-12-04T03:51:18.370Z,99468.06
2022-12-04T03:53:56.379Z,99474.22
2022-12-04T03:56:28.483Z,99478.66
2022-12-04T03:58:59.195Z,99476.91
2022-12-04T04:01:32.299Z,99478.63
2022-12-04T04:04:02.084Z,99483.06
2022-12-04T04:06:33.653Z,99478.66
2022-12-04T04:09:05.062Z,99468.06
2022-12-04T04:11:38.024Z,99477.81
2022-12-04T04:14:29.630Z,99473.41
2022-12-04T04:17:19.109Z,99476.88
2022-12-04T04:20:10.580Z,99481.28
2022-12-04T04:22:58.426Z,99492.75
2022-12-04T04:25:28.502Z,99480.44
2022-12-04T04:27:58.277Z,99483.06
2022-12-04T04:30:25.880Z,99478.69
2022-12-04T04:33:00.489Z,99481.28
2022-12-04T04:35:41.919Z,99480.44
2022-12-04T04:38:23.268Z,99477.78
2022-12-04T04:41:08.214Z,99474.28
2022-12-04T04:43:50.102Z,99481.31
2022-12-04T04:46:28.795Z,99479.56
2022-12-04T04:49:00.740Z,99479.56
2022-12-04T04:51:28.845Z,99475.13
2022-12-04T04:53:58.482Z,99468.09
2022-12-04T04:56:25.559Z,99471.59
2022-12-04T04:58:52.025Z,99469.84
2022-12-04T05:01:22.849Z,99468.06
2022-12-04T05:03:49.579Z,99465.41
2022-12-04T05:06:16.150Z,99475.09
2022-12-04T05:08:42.643Z,99460.97
2022-12-04T05:11:13.351Z,99465.41
2022-12-04T05:13:40.103Z,99469.81
2022-12-04T05:16:10.406Z,99465.41
2022-12-04T05:18:37.529Z,99464.53
2022-12-04T05:21:07.668Z,99470.75
2022-12-04T05:23:34.757Z,99472.50
2022-12-04T05:26:05.186Z,99461.91
2022-12-04T05:28:31.738Z,99467.19
2022-12-04T05:31:02.200Z,99468.06
2022-12-04T05:33:30.242Z,99459.25
2022-12-04T05:36:01.429Z,99459.25
2022-12-04T05:38:28.301Z,99452.25
2022-12-04T05:40:54.812Z,99460.19
2022-12-04T05:43:21.340Z,99461.03
2022-12-04T05:45:47.823Z,99452.25
2022-12-04T05:48:14.392Z,99452.22
2022-12-04T05:50:41.188Z,99445.19
2022-12-04T05:53:07.865Z,99451.31
2022-12-04T05:55:34.381Z,99444.28
2022-12-04T05:58:01.070Z,99449.56
2022-12-04T06:00:27.731Z,99442.50
2022-12-04T06:02:54.272Z,99453.97
2022-12-04T06:05:20.823Z,99449.56
2022-12-04T06:07:47.361Z,99439.84
2022-12-04T06:10:13.939Z,99438.97
2022-12-04T06:12:40.509Z,99431.03
2022-12-04T06:15:07.502Z,99445.13
2022-12-04T06:17:33.933Z,99434.53
2022-12-04T06:20:00.786Z,99442.44
2022-12-04T06:22:27.525Z,99441.59
2022-12-04T06:24:54.129Z,99438.03
2022-12-04T06:27:28.719Z,99440.72
2022-12-04T06:29:55.718Z,99440.69
2022-12-04T06:32:22.584Z,99442.44
2022-12-04T06:34:52.917Z,99444.22
2022-12-04T06:37:20.436Z,99444.22
2022-12-04T06:39:47.039Z,99449.47
2022-12-04T06:42:13.597Z,99444.22
2022-12-04T06:44:40.185Z,99446.84
2022-12-04T06:47:06.753Z,99452.09
2022-12-04T06:49:33.310Z,99447.72
2022-12-04T06:51:59.833Z,99460.97
2022-12-04T06:54:26.588Z,99466.22
2022-12-04T06:56:53.061Z,99457.44
2022-12-04T06:59:19.604Z,99460.06
2022-12-04T07:01:46.089Z,99459.19
2022-12-04T07:04:12.580Z,99466.22
2022-12-04T07:06:39.697Z,99468.84
2022-12-04T07:09:09.971Z,99466.22
2022-12-04T07:11:37.024Z,99474.16
2022-12-04T07:14:03.587Z,99467.06
2022-12-04T07:16:34.003Z,99462.66
2022-12-04T07:19:03.380Z,99456.47
2022-12-04T07:21:31.480Z,99461.78
2022-12-04T07:24:00.941Z,99461.78
2022-12-04T07:26:28.695Z,99459.13
2022-12-04T07:28:55.795Z,99467.03
2022-12-04T07:31:24.218Z,99469.66
2022-12-04T07:33:51.231Z,99469.66
2022-12-04T07:36:19.774Z,99467.91
2022-12-04T07:38:47.126Z,99470.53
2022-12-04T07:41:14.649Z,99468.78
2022-12-04T07:43:42.068Z,99477.56
2022-12-04T07:46:13.079Z,99473.13
2022-12-04T07:48:40.079Z,99462.56
2022-12-04T07:51:09.357Z,99467.84
2022-12-04T07:53:36.370Z,99469.66
2022-12-04T07:56:03.156Z,99457.28
2022-12-04T07:58:29.742Z,99452.88
2022-12-04T08:01:08.686Z,99453.75
2022-12-04T08:03:35.404Z,99467.81
2022-12-04T08:06:03.525Z,99461.63
2022-12-04T08:08:30.234Z,99464.28
2022-12-04T08:10:56.865Z,99466.91
2022-12-04T08:13:23.823Z,99460.72
2022-12-04T08:15:50.398Z,99461.56
2022-12-04T08:18:17.446Z,99453.66
2022-12-04T08:20:44.371Z,99458.94
2022-12-04T08:23:10.964Z,99458.94
2022-12-04T08:25:41.421Z,99466.88
2022-12-04T08:28:08.357Z,99466.00
2022-12-04T08:30:35.644Z,99468.59
2022-12-04T08:33:03.101Z,99465.09
2022-12-04T08:35:29.804Z,99467.78
2022-12-04T08:37:56.335Z,99472.09
2022-12-04T08:40:23.657Z,99473.88
2022-12-04T08:42:50.153Z,99471.22
2022-12-04T08:45:16.860Z,99474.72
2022-12-04T08:47:45.819Z,99465.00
2022-12-04T08:50:15.998Z,99465.06
2022-12-04T08:52:42.615Z,99467.69
2022-12-04T08:55:09.645Z,99468.53
2022-12-04T08:57:36.147Z,99473.88
2022-12-04T09:00:02.760Z,99475.59
2022-12-04T09:02:29.312Z,99473.84
2022-12-04T09:04:56.063Z,99465.88
2022-12-04T09:07:22.643Z,99468.47
2022-12-04T09:09:51.232Z,99453.41
2022-12-04T09:12:17.894Z,99456.03
2022-12-04T09:14:44.631Z,99451.59
2022-12-04T09:17:11.335Z,99451.56
2022-12-04T09:19:38.005Z,99454.22
2022-12-04T09:22:04.650Z,99450.66
2022-12-04T09:24:31.417Z,99449.78
2022-12-04T09:26:57.950Z,99456.84
2022-12-04T09:29:26.204Z,99448.91
2022-12-04T09:31:52.932Z,99448.91
2022-12-04T09:34:19.514Z,99444.47
2022-12-04T09:36:46.246Z,99450.56
2022-12-04T09:39:12.833Z,99440.00
2022-12-04T09:42:17.962Z,99454.09
2022-12-04T09:44:53.480Z,99451.41
2022-12-04T09:47:25.681Z,99452.19
2022-12-04T09:49:55.195Z,99448.66
2022-12-04T09:52:28.118Z,99451.31
2022-12-04T09:54:55.826Z,99449.47
2022-12-04T09:57:29.938Z,99452.13
2022-12-04T09:59:57.606Z,99445.91
2022-12-04T10:02:40.798Z,99451.22
2022-12-04T10:05:16.966Z,99445.00
2022-12-04T10:07:59.192Z,99448.56
2022-12-04T10:10:39.374Z,99444.13
2022-12-04T10:13:33.407Z,99449.47
2022-12-04T10:16:24.473Z,99440.66
2022-12-04T10:19:08.603Z,99436.25
2022-12-04T10:22:12.774Z,99425.66
2022-12-04T10:24:49.452Z,99426.50
2022-12-04T10:27:23.965Z,99423.81
2022-12-04T10:29:55.229Z,99425.56
2022-12-04T10:32:35.166Z,99426.44
2022-12-04T10:35:26.891Z,99431.72
2022-12-04T10:38:34.808Z,99428.13
2022-12-04T10:41:15.299Z,99428.19
2022-12-04T10:43:41.881Z,99425.50
2022-12-04T10:46:14.693Z,99422.91
2022-12-04T10:48:44.250Z,99417.59
2022-12-04T10:51:16.181Z,99413.09
2022-12-04T10:53:44.265Z,99408.75
2022-12-04T10:56:13.180Z,99405.22
2022-12-04T10:58:39.849Z,99408.78
2022-12-04T11:01:10.690Z,99403.50
2022-12-04T11:03:37.377Z,99405.22
2022-12-04T11:06:06.688Z,99397.25
2022-12-04T11:08:43.400Z,99408.75
2022-12-04T11:11:13.166Z,99409.66
2022-12-04T11:13:41.068Z,99405.19
2022-12-04T11:16:08.637Z,99404.25
2022-12-04T11:18:48.115Z,99415.75
2022-12-04T11:21:25.242Z,99420.19
2022-12-04T11:23:53.108Z,99416.59
2022-12-04T11:26:32.426Z,99415.69
2022-12-04T11:29:01.503Z,99421.78
2022-12-04T11:31:30.216Z,99416.47
2022-12-04T11:34:07.650Z,99417.31
2022-12-04T11:36:37.558Z,99408.44
2022-12-04T11:39:13.903Z,99400.44
2022-12-04T11:41:40.564Z,99400.41
2022-12-04T11:44:21.982Z,99403.03
2022-12-04T11:46:54.075Z,99397.53
2022-12-04T11:49:23.149Z,99400.03
2022-12-04T11:52:08.508Z,99392.47
2022-12-04T11:54:43.962Z,99393.81
2022-12-04T11:57:32.017Z,99395.44
2022-12-04T12:00:18.804Z,99390.81
2022-12-04T12:03:04.311Z,99396.94
2022-12-04T12:06:05.919Z,99394.13
2022-12-04T12:08:56.585Z,99387.91
2022-12-04T12:11:23.128Z,99386.84
2022-12-04T12:14:26.821Z,99377.97
2022-12-04T12:17:00.973Z,99377.94
2022-12-04T12:20:13.197Z,99371.66
2022-12-04T12:22:51.555Z,99373.38
2022-12-04T12:25:31.451Z,99371.41
2022-12-04T12:27:57.883Z,99369.69
2022-12-04T12:30:28.465Z,99359.88
2022-12-04T12:33:03.223Z,99361.59
2022-12-04T12:36:01.432Z,99361.47
2022-12-04T12:38:40.033Z,99350.84
2022-12-04T12:41:16.619Z,99358.00
2022-12-04T12:43:48.776Z,99358.88
2022-12-04T12:46:20.887Z,99350.06
2022-12-04T12:48:58.635Z,99357.09
2022-12-04T12:51:45.163Z,99349.13
2022-12-04T12:54:23.562Z,99344.72
2022-12-04T12:56:57.089Z,99351.66
2022-12-04T12:59:27.268Z,99343.66
2022-12-04T13:02:04.127Z,99336.38
2022-12-04T13:04:40.430Z,99345.28
2022-12-04T13:07:19.001Z,99340.09
2022-12-04T13:09:56.869Z,99339.25
2022-12-04T13:12:24.514Z,99339.06
2022-12-04T13:14:50.977Z,99332.09
2022-12-04T13:17:20.819Z,99329.22
2022-12-04T13:19:54.749Z,99330.03
2022-12-04T13:22:54.045Z,99328.19
2022-12-04T13:25:36.618Z,99325.47
2022-12-04T13:28:21.595Z,99316.50
2022-12-04T13:31:09.905Z,99323.59
2022-12-04T13:33:51.480Z,99322.00
2022-12-04T13:36:27.291Z,99326.63
2022-12-04T13:39:12.275Z,99315.44
2022-12-04T13:41:39.464Z,99321.75
2022-12-04T13:44:21.377Z,99316.81
2022-12-04T13:47:03.221Z,99315.22
2022-12-04T13:49:34.439Z,99318.78
2022-12-04T13:52:05.177Z,99318.06
2022-12-04T13:54:34.556Z,99316.28
2022-12-04T13:57:20.218Z,99328.72
2022-12-04T13:59:48.893Z,99320.66
2022-12-04T14:02:35.416Z,99328.72
2022-12-04T14:05:07.918Z,99333.16
2022-12-04T14:07:37.553Z,99329.56
2022-12-04T14:10:27.512Z,99335.84
2022-12-04T14:13:04.470Z,99333.19
2022-12-04T14:15:35.040Z,99341.16
2022-12-04T14:18:13.903Z,99340.47
2022-12-04T14:20:42.632Z,99339.59
2022-12-04T14:23:27.575Z,99345.88
2022-12-04T14:25:58.782Z,99344.16
2022-12-04T14:28:27.019Z,99349.47
2022-12-04T14:31:00.269Z,99342.31
2022-12-04T14:33:30.723Z,99345.03
2022-12-04T14:36:02.976Z,99353.94
2022-12-04T14:38:29.898Z,99343.38
2022-12-04T14:40:58.322Z,99346.88
2022-12-04T14:43:29.246Z,99334.53
2022-12-04T14:46:11.231Z,99327.44
2022-12-04T14:48:56.080Z,99331.91
2022-12-04T14:51:22.552Z,99331.03
2022-12-04T14:53:52.299Z,99330.16
2022-12-04T14:56:44.570Z,99323.97
2022-12-04T14:59:22.543Z,99326.66
2022-12-04T15:01:50.962Z,99326.53
2022-12-04T15:04:33.011Z,99317.72
2022-12-04T15:07:00.883Z,99331.06
2022-12-04T15:09:47.491Z,99324.88
2022-12-04T15:12:33.556Z,99317.78
2022-12-04T15:15:25.056Z,99319.59
2022-12-04T15:18:09.725Z,99317.81
2022-12-04T15:20:44.339Z,99312.50
2022-12-04T15:23:16.468Z,99315.28
2022-12-04T15:25:48.652Z,99311.78
2022-12-04T15:28:28.951Z,99309.09
2022-12-04T15:30:57.904Z,99307.22
2022-12-04T15:33:30.361Z,99302.84
2022-12-04T15:36:08.614Z,99302.94
2022-12-04T15:38:36.503Z,99302.00
2022-12-04T15:41:03.188Z,99299.34
2022-12-04T15:43:40.596Z,99300.28
2022-12-04T15:46:15.611Z,99301.22
2022-12-04T15:48:47.594Z,99311.00
2022-12-04T15:51:16.700Z,99299.53
2022-12-04T15:53:45.947Z,99302.88
2022-12-04T15:56:21.969Z,99298.63
2022-12-04T15:59:01.211Z,99307.50
2022-12-04T16:01:37.702Z,99307.53
2022-12-04T16:04:04.327Z,99298.81
2022-12-04T16:06:33.348Z,99296.13
2022-12-04T16:09:13.005Z,99297.88
2022-12-04T16:11:40.114Z,99301.44
2022-12-04T16:14:09.398Z,99303.06
2022-12-04T16:16:37.717Z,99303.22
2022-12-04T16:19:17.328Z,99309.44
2022-12-04T16:21:44.883Z,99308.63
2022-12-04T16:24:13.279Z,99303.34
2022-12-04T16:26:40.326Z,99301.56
2022-12-04T16:29:06.903Z,99304.19
2022-12-04T16:31:33.534Z,99294.47
2022-12-04T16:34:00.692Z,99305.00
2022-12-04T16:36:27.191Z,99307.66
2022-12-04T16:38:53.658Z,99300.44
2022-12-04T16:41:21.247Z,99302.22
2022-12-04T16:43:58.617Z,99303.88
2022-12-04T16:46:27.147Z,99291.31
2022-12-04T16:48:53.982Z,99305.38
2022-12-04T16:51:25.537Z,99294.50
2022-12-04T16:53:52.859Z,99301.44
2022-12-04T16:56:20.346Z,99307.28
2022-12-04T16:58:47.317Z,99288.59
2022-12-04T17:01:36.545Z,99291.94
2022-12-04T17:04:03.333Z,99287.47
2022-12-04T17:06:31.177Z,99293.59
2022-12-04T17:08:57.666Z,99290.13
2022-12-04T17:11:24.400Z,99283.16
2022-12-04T17:13:50.899Z,99285.91
2022-12-04T17:16:19.748Z,99286.00
2022-12-04T17:18:46.920Z,99283.28
2022-12-04T17:21:14.357Z,99284.06
2022-12-04T17:23:41.569Z,99288.47
2022-12-04T17:26:11.222Z,99288.47
2022-12-04T17:28:38.727Z,99283.03
2022-12-04T17:31:15.772Z,99288.28
2022-12-04T17:33:43.836Z,99281.41
2022-12-04T17:36:12.333Z,99287.59
2022-12-04T17:38:40.769Z,99289.25
2022-12-04T17:41:09.708Z,99284.81
2022-12-04T17:43:36.807Z,99279.47
2022-12-04T17:46:12.538Z,99290.00
2022-12-04T17:48:39.375Z,99287.34
2022-12-04T17:51:11.848Z,99293.72
2022-12-04T17:53:38.662Z,99289.31
2022-12-04T17:56:09.771Z,99289.44
2022-12-04T17:58:36.790Z,99286.00
2022-12-04T18:01:04.278Z,99286.16
2022-12-04T18:03:30.943Z,99285.44
2022-12-04T18:05:57.637Z,99289.16
2022-12-04T18:08:24.198Z,99284.91
2022-12-04T18:10:50.684Z,99287.72
2022-12-04T18:13:17.189Z,99292.22
2022-12-04T18:15:43.655Z,99290.50
2022-12-04T18:18:10.106Z,99281.75
2022-12-04T18:20:36.678Z,99281.81
2022-12-04T18:23:03.120Z,99283.69
2022-12-04T18:25:29.587Z,99280.16
2022-12-04T18:27:56.062Z,99281.84
2022-12-04T18:30:22.504Z,99278.31
2022-12-04T18:32:48.960Z,99282.69
2022-12-04T18:35:15.484Z,99290.69
2022-12-04T18:37:41.928Z,99279.28
2022-12-04T18:40:09.118Z,99281.09
2022-12-04T18:42:35.867Z,99282.03
2022-12-04T18:45:02.467Z,99274.94
2022-12-04T18:47:29.244Z,99274.06
2022-12-04T18:49:56.133Z,99270.50
2022-12-04T18:52:22.836Z,99280.28
2022-12-04T18:54:49.352Z,99278.56
2022-12-04T18:57:15.807Z,99276.75
2022-12-04T18:59:42.261Z,99277.44
2022-12-04T19:02:10.255Z,99273.19
2022-12-04T19:04:36.748Z,99281.00
2022-12-04T19:07:04.898Z,99273.19
2022-12-04T19:10:08.843Z,99278.56
2022-12-04T19:12:17.956Z,99282.13
2022-12-04T19:14:44.447Z,99282.97
2022-12-04T19:17:11.698Z,99275.81
2022-12-04T19:19:38.212Z,99275.88
2022-12-04T19:22:04.789Z,99272.34
2022-12-04T19:24:31.649Z,99275.00
2022-12-04T19:26:58.193Z,99276.03
2022-12-04T19:29:24.725Z,99276.13
2022-12-04T19:31:56.006Z,99281.44
2022-12-04T19:34:25.468Z,99280.66
2022-12-04T19:36:54.334Z,99277.22
2022-12-04T19:39:20.854Z,99274.66
2022-12-04T19:41:47.531Z,99272.84
2022-12-04T19:44:46.704Z,99280.91
2022-12-04T19:47:01.093Z,99272.94
2022-12-04T19:49:27.687Z,99272.09
2022-12-04T19:51:54.195Z,99270.22
2022-12-04T19:54:21.855Z,99271.19
2022-12-04T19:57:10.278Z,99275.69
2022-12-04T19:59:40.569Z,99266.91
2022-12-04T20:02:11.332Z,99273.16
2022-12-04T20:04:39.137Z,99270.50
2022-12-04T20:07:05.638Z,99270.50
2022-12-04T20:09:32.324Z,99279.34
2022-12-04T20:11:58.834Z,99275.91
2022-12-04T20:14:25.541Z,99271.56
2022-12-04T20:16:52.078Z,99283.91
2022-12-04T20:19:19.372Z,99278.63
2022-12-04T20:21:46.944Z,99288.31
2022-12-04T20:24:15.738Z,99289.22
2022-12-04T20:26:44.461Z,99288.31
2022-12-04T20:29:14.608Z,99283.81
2022-12-04T20:31:44.518Z,99285.59
2022-12-04T20:34:14.386Z,99279.44
2022-12-04T20:36:43.629Z,99283.03
2022-12-04T20:39:11.880Z,99276.78
2022-12-04T20:41:39.191Z,99280.31
2022-12-04T20:44:07.956Z,99286.47
2022-12-04T20:46:39.830Z,99281.25
2022-12-04T20:49:09.009Z,99283.91
2022-12-04T20:51:40.993Z,99278.66
2022-12-04T20:54:10.823Z,99275.13
2022-12-04T20:56:38.399Z,99276.03
2022-12-04T20:59:07.792Z,99267.31
2022-12-04T21:01:35.168Z,99265.63
2022-12-04T21:04:02.130Z,99273.56
2022-12-04T21:06:37.627Z,99271.84
2022-12-04T21:09:06.869Z,99278.09
2022-12-04T21:11:36.952Z,99265.81
2022-12-04T21:14:24.321Z,99270.25
2022-12-04T21:16:51.413Z,99269.44
2022-12-04T21:19:19.614Z,99271.13
2022-12-04T21:21:46.590Z,99263.25
2022-12-04T21:24:16.543Z,99259.75
2022-12-04T21:26:43.396Z,99269.38
2022-12-04T21:29:10.139Z,99265.00
2022-12-04T21:31:37.682Z,99263.22
2022-12-04T21:34:06.367Z,99264.09
2022-12-04T21:36:33.220Z,99250.91
2022-12-04T21:38:59.705Z,99252.72
2022-12-04T21:41:45.638Z,99250.06
2022-12-04T21:44:17.493Z,99241.19
2022-12-04T21:46:45.288Z,99240.31
2022-12-04T21:49:13.643Z,99232.38
2022-12-04T21:51:56.664Z,99238.53
2022-12-04T21:54:24.700Z,99242.06
2022-12-04T21:56:51.228Z,99240.22
2022-12-04T21:59:17.808Z,99240.31
2022-12-04T22:01:44.408Z,99238.56
2022-12-04T22:04:11.202Z,99228.78
2022-12-04T22:06:38.013Z,99230.56
2022-12-04T22:09:08.267Z,99229.63
2022-12-04T22:11:35.227Z,99238.44
2022-12-04T22:14:01.922Z,99222.50
2022-12-04T22:16:31.004Z,99235.75
2022-12-04T22:18:59.233Z,99231.31
2022-12-04T22:21:26.694Z,99222.44
2022-12-04T22:24:01.609Z,99222.47
2022-12-04T22:26:29.558Z,99226.00
2022-12-04T22:28:57.580Z,99224.13
2022-12-04T22:31:26.663Z,99224.06
2022-12-04T22:33:54.907Z,99236.44
2022-12-04T22:36:24.404Z,99224.91
2022-12-04T22:39:09.773Z,99219.63
2022-12-04T22:41:37.560Z,99227.59
2022-12-04T22:44:04.557Z,99227.56
2022-12-04T22:46:31.077Z,99224.88
2022-12-04T22:48:58.866Z,99236.31
2022-12-04T22:51:25.519Z,99232.69
2022-12-04T22:53:55.223Z,99223.88
2022-12-04T22:56:30.475Z,99221.16
2022-12-04T22:58:58.459Z,99212.28
2022-12-04T23:01:30.812Z,99213.94
2022-12-04T23:03:57.557Z,99223.69
2022-12-04T23:06:26.353Z,99219.31
2022-12-04T23:09:05.062Z,99214.91
2022-12-04T23:11:31.682Z,99219.28
2022-12-04T23:14:02.495Z,99222.81
2022-12-04T23:16:31.192Z,99214.00
2022-12-04T23:18:58.156Z,99216.59
2022-12-04T23:21:25.853Z,99220.16
2022-12-04T23:23:53.975Z,99224.53
2022-12-04T23:26:24.869Z,99223.66
2022-12-04T23:28:52.096Z,99215.69
2022-12-04T23:31:19.230Z,99212.13
2022-12-04T23:33:46.113Z,99214.75
2022-12-04T23:36:14.041Z,99216.53
2022-12-04T23:38:42.550Z,99220.94
2022-12-04T23:41:14.736Z,99216.53
2022-12-04T23:43:42.197Z,99213.00
2022-12-04T23:46:11.680Z,99212.97
2022-12-04T23:48:43.076Z,99211.16
2022-12-04T23:51:12.326Z,99220.00
2022-12-04T23:53:39.024Z,99219.88
2022-12-04T23:56:13.942Z,99229.59
2022-12-04T23:58:41.945Z,99223.41
